createdAt,value
2018-08-20T00:02:26.073Z,20.50
2018-08-20T00:04:54.548Z,20.60
2018-08-20T00:07:22.844Z,20.60
2018-08-20T00:09:51.323Z,20.60
2018-08-20T00:12:19.837Z,20.70
2018-08-20T00:14:48.522Z,20.70
2018-08-20T00:17:16.922Z,20.70
2018-08-20T00:19:45.154Z,20.70
2018-08-20T00:22:13.464Z,20.70
2018-08-20T00:24:42.020Z,20.70
2018-08-20T00:27:10.926Z,20.70
2018-08-20T00:29:40.527Z,20.70
2018-08-20T00:32:08.919Z,20.70
2018-08-20T00:34:37.300Z,20.70
2018-08-20T00:37:05.624Z,20.70
2018-08-20T00:39:33.919Z,20.70
2018-08-20T00:42:02.193Z,20.70
2018-08-20T00:44:30.454Z,20.70
2018-08-20T00:46:58.726Z,20.60
2018-08-20T00:49:28.382Z,20.60
2018-08-20T00:51:56.801Z,20.70
2018-08-20T00:54:25.079Z,20.70
2018-08-20T00:56:53.354Z,20.60
2018-08-20T00:59:21.637Z,20.70
2018-08-20T01:01:49.984Z,20.60
2018-08-20T01:04:18.239Z,20.60
2018-08-20T01:06:46.546Z,20.60
2018-08-20T01:09:14.866Z,20.60
2018-08-20T01:11:43.181Z,20.70
2018-08-20T01:14:11.478Z,20.70
2018-08-20T01:16:39.839Z,20.60
2018-08-20T01:19:08.143Z,20.60
2018-08-20T01:21:36.410Z,20.60
2018-08-20T01:24:04.685Z,20.60
2018-08-20T01:26:33.032Z,20.60
2018-08-20T01:29:02.959Z,20.60
2018-08-20T01:31:31.242Z,20.60
2018-08-20T01:33:59.637Z,20.60
2018-08-20T01:36:27.945Z,20.50
2018-08-20T01:38:56.186Z,20.50
2018-08-20T01:41:24.852Z,20.50
2018-08-20T01:43:53.172Z,20.50
2018-08-20T01:46:21.563Z,20.20
2018-08-20T01:48:49.822Z,20.50
2018-08-20T01:51:18.142Z,20.50
2018-08-20T01:53:46.425Z,20.40
2018-08-20T01:56:14.789Z,20.40
2018-08-20T01:58:43.067Z,20.40
2018-08-20T02:01:11.405Z,20.40
2018-08-20T02:03:39.708Z,20.40
2018-08-20T02:06:08.160Z,20.40
2018-08-20T02:08:37.953Z,20.40
2018-08-20T02:11:10.186Z,20.40
2018-08-20T02:13:38.723Z,20.40
2018-08-20T02:16:07.313Z,20.40
2018-08-20T02:18:35.593Z,20.40
2018-08-20T02:21:03.886Z,20.30
2018-08-20T02:23:32.389Z,20.30
2018-08-20T02:26:00.704Z,20.30
2018-08-20T02:28:28.958Z,20.30
2018-08-20T02:50:18.313Z,20.30
2018-08-20T02:52:46.657Z,20.30
2018-08-20T02:55:14.971Z,20.20
2018-08-20T02:57:43.297Z,20.20
2018-08-20T03:00:13.344Z,20.20
2018-08-20T03:02:41.757Z,20.20
2018-08-20T03:05:11.225Z,20.20
2018-08-20T03:07:39.545Z,20.20
2018-08-20T03:10:09.499Z,20.20
2018-08-20T03:12:37.826Z,20.20
2018-08-20T03:15:07.133Z,20.20
2018-08-20T03:17:37.049Z,20.20
2018-08-20T03:20:05.945Z,20.20
2018-08-20T03:22:34.434Z,20.10
2018-08-20T18:23:46.332Z,21.60
2018-08-20T18:26:15.896Z,21.60
2018-08-20T18:28:49.769Z,21.60
2018-08-20T18:31:23.035Z,21.60
2018-08-20T18:33:51.380Z,21.60
2018-08-20T18:36:21.827Z,21.60
2018-08-20T18:38:56.090Z,21.50
2018-08-20T18:41:57.842Z,21.50
2018-08-20T18:44:26.242Z,21.40
2018-08-20T18:46:54.559Z,21.40
2018-08-20T18:49:23.276Z,21.40
2018-08-20T18:51:58.553Z,21.40
2018-08-20T18:54:27.057Z,21.40
2018-08-20T18:57:03.506Z,21.40
2018-08-20T18:59:32.437Z,21.30
2018-08-20T19:02:00.773Z,21.30
2018-08-20T19:04:38.274Z,21.20
2018-08-20T19:07:08.895Z,21.20
2018-08-20T19:09:37.868Z,21.20
2018-08-20T19:12:06.379Z,21.20
2018-08-20T19:14:34.663Z,21.20
2018-08-20T19:17:07.073Z,21.20
2018-08-20T19:19:39.947Z,21.20
2018-08-20T19:22:12.488Z,21.10
2018-08-20T19:24:41.896Z,21.10
2018-08-20T19:27:11.324Z,21.10
2018-08-20T19:29:39.683Z,21.00
2018-08-20T19:41:08.792Z,21.00
2018-08-20T19:43:43.187Z,21.00
2018-08-20T19:46:11.576Z,20.80
2018-08-20T19:48:40.197Z,20.80
2018-08-20T19:51:10.083Z,20.70
2018-08-20T19:53:38.560Z,20.70
2018-08-20T19:56:12.450Z,20.60
2018-08-20T19:58:43.247Z,20.60
2018-08-20T20:01:14.148Z,20.60
2018-08-20T20:03:44.449Z,20.60
2018-08-20T20:06:14.473Z,20.60
2018-08-20T20:08:42.795Z,20.30
2018-08-20T20:11:43.068Z,20.60
2018-08-20T20:14:11.716Z,20.60
2018-08-20T20:16:45.311Z,20.60
2018-08-20T20:19:13.777Z,20.60
2018-08-20T20:21:42.103Z,20.60
2018-08-20T20:24:11.681Z,20.60
2018-08-20T20:26:40.213Z,20.60
2018-08-20T20:29:09.190Z,20.50
2018-08-20T20:31:38.567Z,20.50
2018-08-20T20:34:06.962Z,20.50
2018-08-20T20:36:35.873Z,20.50
2018-08-20T20:39:05.724Z,20.50
2018-08-20T20:41:33.213Z,20.50
2018-08-20T20:44:00.848Z,20.50
2018-08-20T20:46:29.304Z,20.50
2018-08-20T20:48:56.724Z,20.50
2018-08-20T20:51:24.138Z,20.50
2018-08-20T20:57:10.328Z,20.40
2018-08-20T20:59:38.925Z,20.40
2018-08-20T21:02:23.988Z,20.40
2018-08-20T21:04:52.417Z,20.30
2018-08-20T21:07:28.115Z,20.30
2018-08-20T21:09:57.355Z,20.30
2018-08-20T21:12:26.713Z,20.30
2018-08-20T21:14:55.068Z,20.30
2018-08-20T21:17:23.386Z,20.30
2018-08-20T21:19:51.781Z,20.30
2018-08-20T21:22:20.501Z,20.20
2018-08-20T21:24:48.954Z,20.20
2018-08-20T21:27:23.593Z,20.20
2018-08-20T21:29:54.920Z,20.20
2018-08-20T21:32:23.486Z,20.20
2018-08-20T21:34:51.807Z,20.20
2018-08-20T21:37:20.449Z,20.20
2018-08-20T21:39:49.562Z,20.20
2018-08-20T21:42:18.144Z,20.10
2018-08-20T21:44:46.504Z,20.10
2018-08-20T21:47:22.283Z,20.10
2018-08-20T21:49:50.630Z,20.00
2018-08-20T21:52:19.185Z,20.00
2018-08-20T21:54:47.773Z,20.00
2018-08-20T21:57:16.614Z,20.00
2018-08-20T21:59:56.199Z,19.90
2018-08-20T22:02:27.929Z,19.90
2018-08-20T22:04:56.250Z,19.80
2018-08-20T22:07:24.753Z,19.80
2018-08-20T22:09:53.222Z,19.80
2018-08-20T22:12:21.840Z,19.70
2018-08-20T22:14:50.218Z,19.70
2018-08-20T22:17:33.908Z,19.60
2018-08-20T22:20:02.469Z,19.60
2018-08-20T22:22:31.376Z,19.50
2018-08-20T22:25:00.931Z,19.50
2018-08-20T22:27:30.246Z,19.40
2018-08-20T22:30:02.704Z,19.40
2018-08-20T22:32:31.456Z,19.30
2018-08-20T22:34:59.969Z,19.20
2018-08-20T22:40:03.791Z,19.10
2018-08-20T22:42:43.987Z,19.00
2018-08-20T22:45:16.496Z,18.90
2018-08-20T22:47:45.911Z,18.80
2018-08-20T22:50:14.170Z,18.70
2018-08-20T22:52:44.860Z,18.70
2018-08-20T22:55:14.563Z,18.70
2018-08-20T22:57:49.944Z,18.60
2018-08-20T23:00:22.416Z,18.50
2018-08-20T23:02:51.129Z,18.50
2018-08-20T23:05:19.433Z,18.40
2018-08-20T23:07:47.715Z,18.40
2018-08-20T23:10:16.020Z,18.30
2018-08-20T23:12:44.389Z,18.30
2018-08-20T23:15:13.426Z,18.20
2018-08-20T23:17:42.253Z,18.10
2018-08-20T23:20:29.705Z,18.00
2018-08-20T23:22:57.975Z,18.00
2018-08-20T23:25:26.207Z,17.90
2018-08-20T23:27:54.722Z,17.90
2018-08-20T23:30:23.000Z,17.80
2018-08-20T23:32:51.290Z,17.80
2018-08-20T23:35:19.569Z,17.70
2018-08-20T23:37:47.860Z,17.70
2018-08-20T23:40:16.658Z,17.70
2018-08-20T23:42:45.100Z,17.70
2018-08-20T23:45:13.451Z,17.60
2018-08-20T23:51:07.263Z,17.60
2018-08-20T23:53:35.581Z,17.60
2018-08-20T23:56:03.949Z,17.50
2018-08-20T23:58:32.206Z,17.40
